Aviation Digital Data Service (ADDS)

Output produced by METARs form (0035 UTC 17 July 2019)
found at http://www.aviationweather.gov/metar/data/
 
HTAR 162200Z 12011KT 9999 BKN024 16/11 Q1022 NOSIG
HTAR 162300Z 1700/1724 10010KT 9999 BKN020 
     TEMPO 1703/1707 RA
       
HTDA 170000Z 19006KT 9999 FEW011 BKN070 21/20 Q1019 NOSIG
TAF HTDA 162300Z 1700/1806 18005KT 9999 SCT012 
     BECMG 1707/1710 21015KT
       
HTDO 162300Z 11013KT 9999 FEW018 18/11 Q1022 NOSIG
HTDO 162300Z 1700/1724 09010KT 9999 FEW020
       
HTIR 170000Z 17011KT 9999 SKC 16/08 Q1024
HTKJ 170000Z 15010KT 9999 BKN022 BKN080 19/16 Q1023 NOSIG
TAF HTKJ 162300Z 1700/1724 09005KT 9999 BKN020
       
HTMT 170000Z 19010KT 9999 FEW017 19/17 Q1020
HTMW 162200Z 09007KT 9999 FEW020 FEW021CB 22/18 Q1018 NOSIG
HTMW 162300Z 1700/1724 00000KT 9999 FEW019 FEW020CB BKN080 
     BECMG 1706/1708 12010KT 
     BECMG 1713/1715 34010KT FEW026 FEW027CB
       
HTZA 170000Z 14010KT 9999 SCT012 24/22 Q1019 NOSIG
HTZA 162300Z 1700/1724 15010KT 9999 FEW012 BKN070 
     BECMG 1701/1703 21010KT BKN012 SCT080 
     BECMG 1709/1711 15015KT